Time;durP1;ratioP1;P1;durP2;ratioP2;P2;SDS_P1;SDS_P2;PMS_P1;PMS_P2;Temp;Humidity;BMP_temperature;BMP_pressure;BME280_temperature;BME280_humidity;BME280_pressure;Samples;Min_cycle;Max_cycle;Signal;HPM_P1;HPM_P2
2023/10/11 00:00:59;;;;;;;15.80;15.20;;;15.00;99.90;;;;;;5115526;28;20220;-63
2023/10/11 00:03:33;;;;;;;15.68;15.02;;;15.00;99.90;;;;;;5115452;28;20234;-63
2023/10/11 00:06:00;;;;;;;14.80;14.20;;;15.00;99.90;;;;;;5115316;28;20206;-63
2023/10/11 00:08:30;;;;;;;14.83;14.23;;;15.00;99.90;;;;;;5115288;28;20210;-63
2023/10/11 00:10:58;;;;;;;14.00;13.40;;;15.00;99.90;;;;;;5114587;28;20206;-63
2023/10/11 00:13:28;;;;;;;15.60;14.95;;;14.90;99.90;;;;;;5114262;28;20229;-63
2023/10/11 00:15:55;;;;;;;15.70;15.10;;;14.90;99.90;;;;;;5114466;28;20287;-63
2023/10/11 00:18:26;;;;;;;15.10;14.50;;;14.80;99.90;;;;;;5114204;28;20206;-62
2023/10/11 00:20:56;;;;;;;15.35;14.75;;;14.80;99.90;;;;;;5114173;28;20677;-64
2023/10/11 00:23:25;;;;;;;14.73;14.13;;;14.80;99.90;;;;;;5114203;28;20238;-63
2023/10/11 00:25:54;;;;;;;14.30;13.80;;;14.80;99.90;;;;;;5114132;28;20208;-63
2023/10/11 00:28:24;;;;;;;15.43;14.83;;;14.80;99.90;;;;;;5114006;28;20594;-64
2023/10/11 00:30:55;;;;;;;14.38;13.77;;;14.70;99.90;;;;;;5114275;28;20210;-64
2023/10/11 00:33:22;;;;;;;15.27;14.68;;;14.70;99.90;;;;;;5114572;28;20230;-64
2023/10/11 00:35:50;;;;;;;14.07;13.57;;;14.60;99.90;;;;;;5114306;28;20229;-62
2023/10/11 00:38:19;;;;;;;13.82;13.23;;;14.60;99.90;;;;;;5114494;28;20213;-63
2023/10/11 00:41:00;;;;;;;14.68;14.07;;;14.60;99.90;;;;;;5114129;28;20213;-64
2023/10/11 00:43:35;;;;;;;14.03;13.50;;;14.70;99.90;;;;;;5114742;28;20233;-64
2023/10/11 00:46:05;;;;;;;13.87;13.37;;;14.60;99.90;;;;;;5114027;28;20202;-63
2023/10/11 00:48:31;;;;;;;14.30;13.70;;;14.60;99.90;;;;;;5114024;28;20252;-64
2023/10/11 00:50:58;;;;;;;13.70;13.20;;;14.60;99.90;;;;;;5114241;28;20206;-63
2023/10/11 00:53:26;;;;;;;13.93;13.32;;;14.60;99.90;;;;;;5113726;28;20238;-63
2023/10/11 00:55:55;;;;;;;13.70;13.18;;;14.60;99.90;;;;;;5113542;28;20481;-64
2023/10/11 00:58:22;;;;;;;13.45;12.95;;;14.50;99.90;;;;;;5113400;28;20233;-63
2023/10/11 01:00:50;;;;;;;13.43;12.90;;;14.50;99.90;;;;;;5113578;28;20287;-64
2023/10/11 01:03:17;;;;;;;14.05;13.55;;;14.40;99.90;;;;;;5113328;28;20229;-64
2023/10/11 01:05:47;;;;;;;14.03;13.43;;;14.40;99.90;;;;;;5113536;28;20210;-63
2023/10/11 01:08:14;;;;;;;13.37;12.87;;;14.40;99.90;;;;;;5113660;28;20262;-63
2023/10/11 01:10:45;;;;;;;13.87;13.27;;;14.40;99.90;;;;;;5113633;28;20221;-64
2023/10/11 01:13:13;;;;;;;13.23;12.73;;;14.40;99.90;;;;;;5114014;28;20261;-62
2023/10/11 01:15:40;;;;;;;13.90;13.30;;;14.30;99.90;;;;;;5114630;28;20243;-63
2023/10/11 01:18:10;;;;;;;14.02;13.43;;;14.30;99.90;;;;;;5114744;28;20266;-63
2023/10/11 01:20:39;;;;;;;13.43;12.93;;;14.30;99.90;;;;;;5114029;28;20209;-64
2023/10/11 01:23:05;;;;;;;14.13;13.52;;;14.30;99.90;;;;;;5113362;28;20234;-64
2023/10/11 01:25:33;;;;;;;13.43;12.93;;;14.20;99.90;;;;;;5113098;28;20198;-64
2023/10/11 01:28:00;;;;;;;14.70;14.10;;;14.20;99.90;;;;;;5112738;28;20285;-62
2023/10/11 01:30:27;;;;;;;14.07;13.57;;;14.20;99.90;;;;;;5112895;28;20213;-63
2023/10/11 01:32:55;;;;;;;13.45;12.95;;;14.20;99.90;;;;;;5112976;28;20739;-63
2023/10/11 01:35:22;;;;;;;14.13;13.52;;;14.20;99.90;;;;;;5112877;28;20237;-63
2023/10/11 01:37:55;;;;;;;14.47;13.87;;;14.20;99.90;;;;;;5112908;28;20206;-64
2023/10/11 01:40:24;;;;;;;13.33;12.83;;;14.20;99.90;;;;;;5112736;28;20297;-62
2023/10/11 01:42:50;;;;;;;13.90;13.30;;;14.20;99.90;;;;;;5112106;28;20237;-64
2023/10/11 01:45:18;;;;;;;13.77;13.17;;;14.20;99.90;;;;;;5112778;28;20216;-63
2023/10/11 01:47:47;;;;;;;13.47;12.87;;;14.20;99.90;;;;;;5112685;28;20270;-61
2023/10/11 01:50:15;;;;;;;13.85;13.27;;;14.20;99.90;;;;;;5112424;28;20210;-63
2023/10/11 01:52:42;;;;;;;13.57;13.07;;;14.20;99.90;;;;;;5112666;28;20287;-63
2023/10/11 01:55:11;;;;;;;13.93;13.43;;;14.20;99.90;;;;;;5112311;28;20579;-63
2023/10/11 01:57:39;;;;;;;13.40;12.90;;;14.20;99.90;;;;;;5112464;28;20217;-62
2023/10/11 02:00:13;;;;;;;13.23;12.73;;;14.20;99.90;;;;;;5111537;28;20206;-63
2023/10/11 02:02:44;;;;;;;13.43;12.93;;;14.20;99.90;;;;;;5112122;28;20252;-63
2023/10/11 02:05:12;;;;;;;14.03;13.43;;;14.20;99.90;;;;;;5112012;28;20221;-64
2023/10/11 02:07:40;;;;;;;13.93;13.33;;;14.10;99.90;;;;;;5111827;28;20206;-63
2023/10/11 02:10:08;;;;;;;13.95;13.45;;;14.10;99.90;;;;;;5111969;28;20242;-63
2023/10/11 02:12:36;;;;;;;13.67;13.17;;;14.10;99.90;;;;;;5107628;28;20202;-64
2023/10/11 02:15:07;;;;;;;13.77;13.27;;;14.20;99.90;;;;;;5108473;28;20291;-64
2023/10/11 02:17:37;;;;;;;15.23;14.63;;;14.20;99.90;;;;;;5112169;28;20209;-63
2023/10/11 02:20:06;;;;;;;14.63;14.13;;;14.20;99.90;;;;;;5109537;28;20213;-62
2023/10/11 02:22:33;;;;;;;15.10;14.20;;;14.20;99.90;;;;;;5112521;28;20816;-63
2023/10/11 02:25:00;;;;;;;15.60;14.90;;;14.20;99.90;;;;;;5113143;28;20202;-64
2023/10/11 02:27:26;;;;;;;18.48;17.73;;;14.20;99.90;;;;;;5113924;28;20711;-64
2023/10/11 02:29:54;;;;;;;19.57;18.83;;;14.10;99.90;;;;;;5116858;28;20216;-63
2023/10/11 02:32:21;;;;;;;17.50;16.80;;;14.10;99.90;;;;;;5114480;28;20232;-63
2023/10/11 02:34:49;;;;;;;18.40;17.70;;;14.10;99.90;;;;;;5115927;28;20289;-63
2023/10/11 02:37:16;;;;;;;18.10;17.42;;;14.00;99.90;;;;;;5112962;28;20220;-63
2023/10/11 02:39:43;;;;;;;15.17;14.57;;;14.00;99.90;;;;;;5112251;28;20238;-63
2023/10/11 02:42:10;;;;;;;17.67;17.00;;;14.00;99.90;;;;;;5114476;28;20213;-64
2023/10/11 02:44:39;;;;;;;17.30;16.67;;;14.00;99.90;;;;;;5111544;28;20237;-64
2023/10/11 02:47:08;;;;;;;16.75;16.05;;;14.00;99.90;;;;;;5112099;28;20228;-64
2023/10/11 02:49:35;;;;;;;17.73;16.87;;;14.00;99.90;;;;;;5111902;28;20298;-62
2023/10/11 02:52:06;;;;;;;18.63;17.87;;;14.00;99.90;;;;;;5112163;28;20684;-63
2023/10/11 02:54:38;;;;;;;18.83;18.13;;;14.00;99.90;;;;;;5111450;28;20707;-63
2023/10/11 02:57:06;;;;;;;18.43;17.73;;;14.00;99.90;;;;;;5111383;28;20226;-63
2023/10/11 02:59:33;;;;;;;21.30;20.50;;;13.90;99.90;;;;;;5111438;28;20676;-63
2023/10/11 03:02:00;;;;;;;17.07;16.37;;;13.80;99.90;;;;;;5111592;28;20209;-64
2023/10/11 03:04:34;;;;;;;18.95;18.17;;;13.90;99.90;;;;;;5111432;28;20230;-63
2023/10/11 03:07:01;;;;;;;16.92;16.33;;;13.80;99.90;;;;;;5111607;28;20591;-63
2023/10/11 03:09:28;;;;;;;18.50;17.80;;;13.90;99.90;;;;;;5111178;28;20202;-63
2023/10/11 03:11:57;;;;;;;18.35;17.58;;;13.90;99.90;;;;;;5111311;28;20237;-63
2023/10/11 03:14:26;;;;;;;17.67;17.00;;;13.80;99.90;;;;;;5111391;28;20229;-64
2023/10/11 03:16:56;;;;;;;17.57;16.87;;;13.90;99.90;;;;;;5111807;28;20225;-62
2023/10/11 03:19:24;;;;;;;18.40;17.60;;;13.90;99.90;;;;;;5115450;28;20303;-64
2023/10/11 03:21:53;;;;;;;17.77;17.07;;;13.90;99.90;;;;;;5115225;28;20668;-63
2023/10/11 03:24:21;;;;;;;19.00;18.30;;;14.00;99.90;;;;;;5115081;28;20232;-62
2023/10/11 03:26:51;;;;;;;17.02;16.42;;;13.90;99.90;;;;;;5115603;28;20206;-63
2023/10/11 03:29:21;;;;;;;16.43;15.83;;;13.90;99.90;;;;;;5115330;28;20228;-63
2023/10/11 03:31:48;;;;;;;16.87;16.17;;;13.90;99.90;;;;;;5115234;28;20292;-62
2023/10/11 03:34:17;;;;;;;15.60;15.00;;;13.80;99.90;;;;;;5115159;28;20731;-63
2023/10/11 03:36:49;;;;;;;15.63;15.02;;;13.80;99.90;;;;;;5114926;28;20243;-63
2023/10/11 03:39:26;;;;;;;15.63;15.03;;;13.90;99.90;;;;;;5114834;28;20561;-63
2023/10/11 03:42:05;;;;;;;16.80;16.10;;;14.00;99.90;;;;;;5115194;28;20208;-63
2023/10/11 03:44:35;;;;;;;16.65;16.00;;;14.00;99.90;;;;;;5114991;28;20244;-63
2023/10/11 03:47:06;;;;;;;15.27;14.70;;;14.00;99.90;;;;;;5114963;28;20212;-63
2023/10/11 03:49:37;;;;;;;15.23;14.70;;;14.00;99.90;;;;;;5115058;28;20210;-63
2023/10/11 03:52:05;;;;;;;16.13;15.53;;;14.00;99.90;;;;;;5115604;28;20711;-62
2023/10/11 03:54:36;;;;;;;17.50;16.80;;;14.00;99.90;;;;;;5115195;28;20229;-64
2023/10/11 03:57:04;;;;;;;16.40;15.80;;;14.00;99.90;;;;;;5114873;28;20233;-62
2023/10/11 03:59:38;;;;;;;16.38;15.77;;;14.00;99.90;;;;;;5114854;28;20205;-63
2023/10/11 04:02:10;;;;;;;15.57;14.98;;;13.90;99.90;;;;;;5118650;28;20202;-63
2023/10/11 04:04:40;;;;;;;15.50;14.88;;;13.90;99.90;;;;;;5117523;28;20260;-63
2023/10/11 04:07:06;;;;;;;15.83;15.13;;;13.90;99.90;;;;;;5115272;28;20305;-63
2023/10/11 04:09:37;;;;;;;15.23;14.63;;;13.90;99.90;;;;;;5114898;28;20260;-62
2023/10/11 04:12:04;;;;;;;16.48;15.88;;;13.90;99.90;;;;;;5114833;28;20233;-64
2023/10/11 04:14:43;;;;;;;14.57;13.97;;;13.90;99.90;;;;;;5115938;28;20858;-63
2023/10/11 04:17:14;;;;;;;15.13;14.52;;;13.90;99.90;;;;;;5114759;28;20230;-64
2023/10/11 04:19:42;;;;;;;15.77;15.17;;;13.90;99.90;;;;;;5114763;28;20202;-64
2023/10/11 04:22:16;;;;;;;16.67;15.93;;;13.90;99.90;;;;;;5114772;28;20210;-63
2023/10/11 04:24:45;;;;;;;16.42;15.73;;;13.90;99.90;;;;;;5114606;28;20325;-62
2023/10/11 04:30:17;;;;;;;15.32;14.73;;;13.90;99.90;;;;;;5113909;28;20403;-64
2023/10/11 04:32:46;;;;;;;15.97;15.27;;;13.90;99.90;;;;;;5118255;28;20234;-63
2023/10/11 04:35:21;;;;;;;16.30;15.70;;;13.90;99.90;;;;;;5123638;28;20225;-66
2023/10/11 04:37:54;;;;;;;16.33;15.70;;;13.80;99.90;;;;;;5125511;28;20197;-66
2023/10/11 04:40:35;;;;;;;18.70;18.00;;;13.80;99.90;;;;;;5129463;28;20206;-67
2023/10/11 04:43:05;;;;;;;19.55;18.83;;;13.80;99.90;;;;;;5128875;28;20251;-64
2023/10/11 04:45:43;;;;;;;16.60;15.97;;;13.80;99.90;;;;;;5128366;28;20206;-66
2023/10/11 04:48:14;;;;;;;15.37;14.83;;;13.80;99.90;;;;;;5124846;28;20213;-66
2023/10/11 04:50:44;;;;;;;15.77;15.20;;;13.70;99.90;;;;;;5114717;28;20247;-66
2023/10/11 04:53:17;;;;;;;18.63;17.93;;;13.80;99.90;;;;;;5114214;28;20225;-65
2023/10/11 04:55:47;;;;;;;16.17;15.57;;;13.70;99.90;;;;;;5114309;28;20328;-64
2023/10/11 04:58:39;;;;;;;17.50;16.80;;;13.60;99.90;;;;;;5113672;28;20648;-63
2023/10/11 05:01:08;;;;;;;16.83;16.20;;;13.60;99.90;;;;;;5113534;28;20235;-67
2023/10/11 05:03:37;;;;;;;16.90;16.27;;;13.60;99.90;;;;;;5113984;28;20222;-64
2023/10/11 05:06:12;;;;;;;23.67;22.77;;;13.60;99.90;;;;;;5114374;28;20687;-65
2023/10/11 05:08:54;;;;;;;16.00;15.40;;;13.60;99.90;;;;;;5113620;28;20209;-65
2023/10/11 05:11:36;;;;;;;17.10;16.50;;;13.60;99.90;;;;;;5113630;28;20217;-63
2023/10/11 05:14:10;;;;;;;17.40;16.80;;;13.50;99.90;;;;;;5107763;28;20226;-64
2023/10/11 05:16:44;;;;;;;16.97;16.37;;;13.50;99.90;;;;;;5112453;27;20232;-66
2023/10/11 05:19:14;;;;;;;18.45;17.67;;;13.40;99.90;;;;;;5111934;28;20206;-65
2023/10/11 05:21:43;;;;;;;18.20;17.50;;;13.40;99.90;;;;;;5113261;28;20259;-65
2023/10/11 05:24:29;;;;;;;17.70;17.00;;;13.40;99.90;;;;;;5113536;28;20799;-67
2023/10/11 05:27:11;;;;;;;18.48;17.77;;;13.30;99.90;;;;;;5113308;28;20201;-67
2023/10/11 05:30:05;;;;;;;16.93;16.33;;;13.30;99.90;;;;;;5115302;28;20210;-67
2023/10/11 05:32:32;;;;;;;16.60;15.90;;;13.40;99.90;;;;;;5114639;28;20209;-65
2023/10/11 05:35:12;;;;;;;16.57;15.97;;;13.40;99.90;;;;;;5113779;28;20210;-65
2023/10/11 05:51:33;;;;;;;16.77;16.13;;;13.40;99.90;;;;;;5101344;28;20216;-67
2023/10/11 05:54:03;;;;;;;17.83;17.13;;;13.40;99.90;;;;;;5112775;28;20225;-66
2023/10/11 05:56:33;;;;;;;18.17;17.50;;;13.40;99.90;;;;;;5112138;28;20753;-67
2023/10/11 05:59:04;;;;;;;16.10;15.50;;;13.50;99.90;;;;;;5111936;28;20255;-65
2023/10/11 06:01:34;;;;;;;16.63;15.93;;;13.40;99.90;;;;;;5111832;28;20232;-66
2023/10/11 06:04:03;;;;;;;18.00;17.30;;;13.40;99.90;;;;;;5111558;28;20236;-65
2023/10/11 06:06:38;;;;;;;16.30;15.50;;;13.40;99.90;;;;;;5111326;28;20209;-65
2023/10/11 06:09:08;;;;;;;16.30;15.70;;;13.40;99.90;;;;;;5111289;28;20206;-66
2023/10/11 06:11:37;;;;;;;19.43;18.67;;;13.40;99.90;;;;;;5118316;28;20210;-67
2023/10/11 06:14:07;;;;;;;17.67;16.97;;;13.40;99.90;;;;;;5115613;28;20221;-66
2023/10/11 06:16:37;;;;;;;17.40;16.73;;;13.40;99.90;;;;;;5114451;28;20742;-66
2023/10/11 06:19:16;;;;;;;18.67;17.97;;;13.50;99.90;;;;;;5114459;28;20230;-65
2023/10/11 06:21:56;;;;;;;15.93;15.33;;;13.50;99.90;;;;;;5114102;28;20209;-66
2023/10/11 06:24:23;;;;;;;16.00;15.40;;;13.50;99.90;;;;;;5112935;28;20221;-66
2023/10/11 06:27:03;;;;;;;16.20;15.60;;;13.60;99.90;;;;;;5114192;28;20198;-66
2023/10/11 06:29:32;;;;;;;15.10;14.57;;;13.60;99.90;;;;;;5112569;28;20236;-66
2023/10/11 06:31:59;;;;;;;14.60;14.10;;;13.60;99.90;;;;;;5113888;28;20202;-66
2023/10/11 06:34:32;;;;;;;14.33;13.83;;;13.70;99.90;;;;;;5121422;28;20246;-67
2023/10/11 06:37:00;;;;;;;14.07;13.47;;;13.80;99.90;;;;;;5127346;28;20229;-67
2023/10/11 06:42:13;;;;;;;13.47;12.97;;;14.00;99.90;;;;;;5123490;28;20279;-65
2023/10/11 06:44:42;;;;;;;13.25;12.75;;;14.10;99.90;;;;;;5128773;28;20237;-66
2023/10/11 06:47:11;;;;;;;13.30;12.80;;;14.20;99.90;;;;;;5125388;28;20201;-66
2023/10/11 06:49:44;;;;;;;13.40;12.80;;;14.30;99.90;;;;;;5122133;28;20710;-66
2023/10/11 06:52:11;;;;;;;13.47;12.97;;;14.40;99.90;;;;;;5115964;28;20235;-66
2023/10/11 06:54:38;;;;;;;12.57;11.97;;;14.40;99.90;;;;;;5118752;28;20218;-66
2023/10/11 06:57:07;;;;;;;13.00;12.50;;;14.50;99.90;;;;;;5113569;28;20234;-66
2023/10/11 06:59:33;;;;;;;13.23;12.73;;;14.60;99.90;;;;;;5113691;28;20660;-67
2023/10/11 07:02:02;;;;;;;13.07;12.57;;;14.70;99.90;;;;;;5112838;28;20205;-66
2023/10/11 07:04:36;;;;;;;13.43;12.93;;;14.70;99.90;;;;;;5113151;28;20268;-67
2023/10/11 07:07:07;;;;;;;13.35;12.85;;;14.80;99.90;;;;;;5110048;28;20284;-66
2023/10/11 07:09:39;;;;;;;13.80;13.30;;;14.80;99.90;;;;;;5109991;28;20235;-66
2023/10/11 07:12:28;;;;;;;13.52;12.93;;;14.90;99.90;;;;;;5113168;28;20237;-66
2023/10/11 07:14:57;;;;;;;13.60;13.10;;;15.00;99.90;;;;;;5113108;28;20205;-66
2023/10/11 07:17:28;;;;;;;15.17;14.60;;;15.10;99.90;;;;;;5112975;28;20214;-67
2023/10/11 07:19:57;;;;;;;13.48;12.98;;;15.20;99.90;;;;;;5112817;28;20217;-67
2023/10/11 07:22:26;;;;;;;14.25;13.65;;;15.30;99.90;;;;;;5113839;28;20240;-64
2023/10/11 07:24:56;;;;;;;13.60;13.10;;;15.40;99.90;;;;;;5112059;28;20579;-67
2023/10/11 07:27:26;;;;;;;13.47;12.97;;;15.40;99.90;;;;;;5111883;28;20213;-67
2023/10/11 07:29:54;;;;;;;13.88;13.32;;;15.50;99.90;;;;;;5113481;28;20208;-66
2023/10/11 07:32:21;;;;;;;14.65;14.05;;;15.60;99.90;;;;;;5115925;28;20210;-65
2023/10/11 07:34:54;;;;;;;13.85;13.35;;;15.80;99.90;;;;;;5116865;28;20641;-66
2023/10/11 07:37:26;;;;;;;13.85;13.35;;;15.90;99.90;;;;;;5116349;28;20221;-65
2023/10/11 07:40:00;;;;;;;13.03;12.53;;;16.00;99.90;;;;;;5117073;28;20269;-67
2023/10/11 07:42:36;;;;;;;14.15;13.63;;;16.00;99.90;;;;;;5114855;28;20210;-66
2023/10/11 07:45:07;;;;;;;13.10;12.60;;;16.20;99.90;;;;;;5112139;28;20277;-66
2023/10/11 07:47:34;;;;;;;13.73;13.15;;;16.30;99.90;;;;;;5114773;28;20213;-68
2023/10/11 07:50:04;;;;;;;13.87;13.27;;;16.50;99.90;;;;;;5116670;28;20514;-67
2023/10/11 07:52:33;;;;;;;13.30;12.80;;;16.60;99.90;;;;;;5124692;28;20206;-67
2023/10/11 07:55:00;;;;;;;13.75;13.20;;;16.80;99.90;;;;;;5124819;28;20210;-67
2023/10/11 07:57:27;;;;;;;14.48;13.98;;;16.90;99.90;;;;;;5126216;28;20297;-66
2023/10/11 07:59:54;;;;;;;13.05;12.55;;;17.10;99.90;;;;;;5127778;28;20222;-67
2023/10/11 08:02:32;;;;;;;13.80;13.30;;;17.30;99.90;;;;;;5122156;28;20213;-66
2023/10/11 08:04:59;;;;;;;13.70;13.10;;;17.50;99.90;;;;;;5124213;28;20209;-67
2023/10/11 08:07:27;;;;;;;13.50;12.90;;;17.60;99.90;;;;;;5120244;28;20202;-66
2023/10/11 08:09:55;;;;;;;13.45;12.95;;;17.80;99.90;;;;;;5117855;28;20236;-67
2023/10/11 08:12:23;;;;;;;13.55;13.05;;;18.00;99.90;;;;;;5119268;28;20680;-65
2023/10/11 08:14:53;;;;;;;13.87;13.37;;;18.10;99.90;;;;;;5118534;28;20225;-66
2023/10/11 08:17:21;;;;;;;13.33;12.73;;;18.30;99.90;;;;;;5116679;28;20222;-67
2023/10/11 08:19:53;;;;;;;13.38;12.88;;;18.50;99.90;;;;;;5115362;28;20205;-66
2023/10/11 08:22:22;;;;;;;13.40;12.90;;;18.70;99.90;;;;;;5114790;28;20206;-66
2023/10/11 08:24:56;;;;;;;13.30;12.80;;;18.90;99.90;;;;;;5114860;28;20261;-66
2023/10/11 08:27:27;;;;;;;13.95;13.45;;;19.00;99.90;;;;;;5115202;28;20208;-66
2023/10/11 08:30:06;;;;;;;14.30;13.80;;;19.20;99.90;;;;;;5116341;28;20205;-66
2023/10/11 08:32:33;;;;;;;14.68;14.13;;;19.30;99.90;;;;;;5112358;28;20213;-67
2023/10/11 08:35:00;;;;;;;15.13;14.53;;;19.60;99.90;;;;;;5117355;28;20206;-66
2023/10/11 08:37:31;;;;;;;14.82;14.30;;;19.70;99.90;;;;;;5115869;28;20311;-67
2023/10/11 08:40:01;;;;;;;14.45;13.85;;;20.00;99.90;;;;;;5115803;28;20426;-66
2023/10/11 08:42:31;;;;;;;17.75;17.05;;;20.20;99.90;;;;;;5116796;28;20256;-66
2023/10/11 08:45:00;;;;;;;14.73;13.93;;;20.40;99.90;;;;;;5115762;28;20308;-66
2023/10/11 08:47:29;;;;;;;15.50;14.90;;;20.60;99.90;;;;;;5116796;28;20206;-68
2023/10/11 08:49:56;;;;;;;15.50;14.70;;;20.80;99.90;;;;;;5115561;28;20210;-67
2023/10/11 08:52:24;;;;;;;16.08;15.48;;;21.00;99.90;;;;;;5115205;28;20210;-66
2023/10/11 08:54:52;;;;;;;14.32;13.82;;;21.20;99.90;;;;;;5115168;28;20197;-66
2023/10/11 08:57:25;;;;;;;16.25;15.65;;;21.40;99.90;;;;;;5114300;28;20226;-67
2023/10/11 08:59:56;;;;;;;16.77;16.17;;;21.60;99.90;;;;;;5114743;28;20194;-68
2023/10/11 09:02:26;;;;;;;15.30;14.70;;;21.80;99.90;;;;;;5114191;28;20202;-68
2023/10/11 09:05:00;;;;;;;15.90;15.20;;;22.00;99.90;;;;;;5114097;28;20556;-68
2023/10/11 09:07:38;;;;;;;15.00;14.40;;;22.10;99.90;;;;;;5114424;28;20581;-66
2023/10/11 09:10:23;;;;;;;16.00;15.30;;;22.40;99.90;;;;;;5111312;28;20239;-67
2023/10/11 09:12:56;;;;;;;15.73;15.13;;;22.60;99.90;;;;;;5113811;28;20598;-67
2023/10/11 09:15:23;;;;;;;17.17;16.48;;;22.80;99.90;;;;;;5113252;28;20217;-67
2023/10/11 09:17:50;;;;;;;18.27;17.55;;;23.00;99.90;;;;;;5115165;28;20600;-65
2023/10/11 09:20:23;;;;;;;15.20;14.55;;;23.20;99.90;;;;;;5118173;28;20296;-65
2023/10/11 09:22:55;;;;;;;17.02;16.33;;;23.40;99.90;;;;;;5118841;28;20320;-67
2023/10/11 09:25:24;;;;;;;16.67;16.05;;;23.60;99.90;;;;;;5114214;28;20288;-65
2023/10/11 09:27:54;;;;;;;17.35;16.70;;;23.70;99.90;;;;;;5113931;28;20548;-68
2023/10/11 09:30:22;;;;;;;15.48;14.88;;;23.80;99.90;;;;;;5113734;28;20229;-68
2023/10/11 09:32:51;;;;;;;16.10;15.43;;;24.00;99.90;;;;;;5113612;28;20230;-66
2023/10/11 09:35:26;;;;;;;16.33;15.73;;;24.10;99.90;;;;;;5113727;28;20691;-66
2023/10/11 09:37:54;;;;;;;18.25;17.55;;;24.30;99.90;;;;;;5114100;28;20221;-67
2023/10/11 09:40:27;;;;;;;17.02;16.33;;;24.30;99.90;;;;;;5113694;28;20607;-66
2023/10/11 09:43:00;;;;;;;15.98;15.38;;;24.40;99.90;;;;;;5116778;28;20270;-66
2023/10/11 09:45:30;;;;;;;16.25;15.65;;;24.60;99.90;;;;;;5113656;28;20293;-66
2023/10/11 09:47:57;;;;;;;15.70;15.10;;;24.70;99.90;;;;;;5114215;28;20255;-68
2023/10/11 09:50:26;;;;;;;18.02;17.20;;;24.70;99.90;;;;;;5113544;28;20265;-67
2023/10/11 09:52:54;;;;;;;16.75;16.13;;;24.80;99.90;;;;;;5112992;28;20222;-67
2023/10/11 09:55:31;;;;;;;15.85;15.25;;;24.90;99.90;;;;;;5113214;28;20206;-67
2023/10/11 09:58:11;;;;;;;16.75;16.15;;;25.20;99.90;;;;;;5112769;28;20319;-67
2023/10/11 10:00:44;;;;;;;16.20;15.55;;;25.30;99.90;;;;;;5110006;28;20589;-67
2023/10/11 10:03:13;;;;;;;17.13;16.42;;;25.30;99.90;;;;;;5112897;28;20226;-68
2023/10/11 10:06:18;;;;;;;17.35;16.63;;;25.40;99.90;;;;;;5113125;28;20205;-68
2023/10/11 10:08:47;;;;;;;14.70;14.15;;;25.50;99.90;;;;;;5113035;28;20675;-67
2023/10/11 10:11:19;;;;;;;15.65;14.95;;;25.40;99.90;;;;;;5113128;28;20623;-67
2023/10/11 10:14:22;;;;;;;15.45;14.85;;;25.60;99.90;;;;;;5113595;28;20342;-67
2023/10/11 10:17:10;;;;;;;16.27;15.57;;;25.70;99.90;;;;;;5111227;28;20209;-67
2023/10/11 10:19:39;;;;;;;15.27;14.68;;;25.90;99.90;;;;;;5116994;28;20232;-65
2023/10/11 10:22:17;;;;;;;14.98;14.38;;;25.90;99.90;;;;;;5113116;28;20344;-68
2023/10/11 10:24:45;;;;;;;15.32;14.73;;;26.00;99.90;;;;;;5113348;28;20255;-66
2023/10/11 10:27:38;;;;;;;15.07;14.48;;;26.20;99.90;;;;;;5111850;28;20213;-66
2023/10/11 10:30:08;;;;;;;14.93;14.32;;;26.30;99.90;;;;;;5110865;28;20231;-66
2023/10/11 10:32:35;;;;;;;15.00;14.40;;;26.40;99.90;;;;;;5112752;28;20220;-68
2023/10/11 10:35:28;;;;;;;16.23;15.57;;;26.40;99.90;;;;;;5112784;28;20209;-66
2023/10/11 10:37:56;;;;;;;16.20;15.60;;;26.50;99.90;;;;;;5112454;28;20235;-67
2023/10/11 10:40:27;;;;;;;16.25;15.65;;;26.50;99.90;;;;;;5121962;28;20227;-67
2023/10/11 10:43:23;;;;;;;16.42;15.82;;;26.50;99.90;;;;;;5125235;28;20712;-67
2023/10/11 10:45:52;;;;;;;16.88;16.27;;;26.60;99.90;;;;;;5116801;28;20201;-67
2023/10/11 10:48:23;;;;;;;17.88;17.08;;;26.70;99.90;;;;;;5119694;28;20300;-68
2023/10/11 10:50:50;;;;;;;16.67;15.98;;;26.70;99.90;;;;;;5113596;28;20273;-66
2023/10/11 10:53:18;;;;;;;16.90;16.30;;;26.70;99.90;;;;;;5112540;28;20222;-67
2023/10/11 10:55:44;;;;;;;18.00;17.30;;;26.70;99.90;;;;;;5112467;28;20269;-66
2023/10/11 10:58:17;;;;;;;18.20;17.50;;;26.70;99.90;;;;;;5111831;28;20218;-68
2023/10/11 11:00:44;;;;;;;19.15;18.35;;;26.70;99.90;;;;;;5112782;28;20205;-68
2023/10/11 11:03:22;;;;;;;18.38;17.67;;;26.80;99.90;;;;;;5112000;28;20221;-67
2023/10/11 11:05:58;;;;;;;20.83;20.02;;;26.80;99.90;;;;;;5112098;28;20234;-67
2023/10/11 11:08:28;;;;;;;22.90;22.00;;;26.90;99.90;;;;;;5112086;28;20719;-66
2023/10/11 11:10:59;;;;;;;22.73;21.63;;;26.80;99.90;;;;;;5111889;28;20668;-67
2023/10/11 11:13:29;;;;;;;24.70;23.70;;;26.80;99.90;;;;;;5113412;28;20222;-66
2023/10/11 11:15:55;;;;;;;21.60;20.80;;;26.80;99.90;;;;;;5112152;28;20696;-67
2023/10/11 11:18:36;;;;;;;25.02;24.02;;;26.80;99.90;;;;;;5111733;28;20228;-67
2023/10/11 11:21:17;;;;;;;26.08;25.08;;;26.90;99.90;;;;;;5108501;28;20206;-67
2023/10/11 11:23:45;;;;;;;21.55;20.67;;;27.00;99.90;;;;;;5109760;28;20256;-66
2023/10/11 11:26:15;;;;;;;23.38;22.52;;;27.00;99.90;;;;;;5112543;28;20205;-68
2023/10/11 11:28:46;;;;;;;22.52;21.73;;;27.10;99.90;;;;;;5112038;28;20206;-68
2023/10/11 11:31:13;;;;;;;25.70;24.80;;;27.10;99.90;;;;;;5112115;28;20201;-68
2023/10/11 11:36:56;;;;;;;17.45;16.75;;;27.10;99.90;;;;;;5090308;27;20532;-68
2023/10/11 11:39:26;;;;;;;17.05;16.35;;;27.10;99.90;;;;;;5089455;28;20210;-67
2023/10/11 11:41:55;;;;;;;17.27;16.48;;;26.90;99.90;;;;;;5089588;28;20252;-66
2023/10/11 11:44:21;;;;;;;16.75;16.15;;;27.00;99.90;;;;;;5089079;28;20727;-66
2023/10/11 11:46:49;;;;;;;17.10;16.40;;;27.00;99.90;;;;;;5084957;28;20199;-67
2023/10/11 11:49:18;;;;;;;18.58;17.88;;;27.00;99.90;;;;;;5089305;28;20211;-67
2023/10/11 11:51:46;;;;;;;18.52;17.83;;;27.00;99.90;;;;;;5089654;28;20210;-67
2023/10/11 11:54:17;;;;;;;19.02;18.33;;;27.10;99.90;;;;;;5087972;28;20234;-67
2023/10/11 11:56:45;;;;;;;17.65;17.05;;;27.10;99.90;;;;;;5087318;28;20559;-67
2023/10/11 11:59:17;;;;;;;19.13;18.35;;;27.20;99.90;;;;;;5089281;28;20202;-64
2023/10/11 12:01:49;;;;;;;20.10;19.40;;;27.30;99.90;;;;;;5080171;28;20203;-67
2023/10/11 12:04:20;;;;;;;19.58;18.88;;;27.30;99.90;;;;;;5086115;28;20236;-65
2023/10/11 12:06:48;;;;;;;22.27;21.48;;;27.30;99.90;;;;;;5078456;28;20302;-65
2023/10/11 12:09:20;;;;;;;20.33;19.50;;;27.30;99.90;;;;;;5088466;28;20217;-66
2023/10/11 12:11:49;;;;;;;22.92;22.00;;;27.40;99.90;;;;;;5088849;28;20217;-67
2023/10/11 12:14:16;;;;;;;18.48;17.77;;;27.40;99.90;;;;;;5088372;28;20635;-66
2023/10/11 12:16:43;;;;;;;17.02;16.13;;;27.50;99.90;;;;;;5084928;28;20222;-67
2023/10/11 12:19:12;;;;;;;16.45;15.85;;;27.50;99.90;;;;;;5088635;28;20574;-66
2023/10/11 12:21:39;;;;;;;15.95;15.35;;;27.50;99.90;;;;;;5088624;28;20198;-67
2023/10/11 12:24:11;;;;;;;17.33;16.63;;;27.50;99.90;;;;;;5082653;28;20231;-66
2023/10/11 12:26:40;;;;;;;17.38;16.67;;;27.50;99.90;;;;;;5089860;28;20199;-66
2023/10/11 12:29:08;;;;;;;16.35;15.65;;;27.50;99.90;;;;;;5085091;28;20217;-67
2023/10/11 12:31:38;;;;;;;16.40;15.80;;;27.60;99.90;;;;;;5091699;28;20207;-66
2023/10/11 12:34:06;;;;;;;19.90;19.10;;;27.60;99.90;;;;;;5086450;28;20596;-66
2023/10/11 12:36:33;;;;;;;18.65;17.92;;;27.60;99.90;;;;;;5089144;28;20321;-65
2023/10/11 12:38:59;;;;;;;19.92;19.23;;;27.60;99.90;;;;;;5088972;28;20615;-66
2023/10/11 12:41:27;;;;;;;18.42;17.73;;;27.70;99.90;;;;;;5088522;28;20215;-67
2023/10/11 12:43:54;;;;;;;18.77;17.98;;;27.70;99.90;;;;;;5075260;28;20227;-66
2023/10/11 12:46:21;;;;;;;19.40;18.60;;;27.70;99.90;;;;;;5084687;28;20203;-65
2023/10/11 12:48:54;;;;;;;19.15;18.45;;;27.70;99.90;;;;;;5074849;28;20283;-65
2023/10/11 12:51:22;;;;;;;19.20;18.40;;;27.70;99.90;;;;;;5075907;28;20203;-66
2023/10/11 12:53:49;;;;;;;19.38;18.58;;;27.60;99.90;;;;;;5075002;28;20302;-66
2023/10/11 12:56:15;;;;;;;21.45;20.65;;;27.70;99.90;;;;;;5069490;28;20278;-67
2023/10/11 12:58:44;;;;;;;18.63;17.83;;;27.70;99.90;;;;;;5069139;28;20235;-68
2023/10/11 13:01:13;;;;;;;20.90;20.10;;;27.70;99.90;;;;;;5069193;28;20203;-66
2023/10/11 13:03:40;;;;;;;21.70;20.90;;;27.70;99.90;;;;;;5074069;28;20253;-66
2023/10/11 13:06:09;;;;;;;20.08;19.23;;;27.70;99.90;;;;;;5065425;28;20200;-67
2023/10/11 13:08:37;;;;;;;20.00;19.30;;;27.70;99.90;;;;;;5053597;28;20292;-65